createdAt,value
2022-08-12T00:00:34.980Z,102174.84
2022-08-12T00:03:20.910Z,102173.19
2022-08-12T00:06:08.425Z,102172.69
2022-08-12T00:08:54.722Z,102176.72
2022-08-12T00:11:39.898Z,102177.06
2022-08-12T00:14:24.674Z,102178.22
2022-08-12T00:17:09.825Z,102177.72
2022-08-12T00:19:54.877Z,102181.25
2022-08-12T00:22:41.949Z,102179.91
2022-08-12T00:26:06.635Z,102185.94
2022-08-12T00:28:33.109Z,102179.75
2022-08-12T00:31:18.235Z,102181.63
2022-08-12T00:34:03.128Z,102181.63
2022-08-12T00:36:50.651Z,102171.78
2022-08-12T00:39:37.138Z,102171.44
2022-08-12T00:42:13.197Z,102170.97
2022-08-12T00:44:42.451Z,102166.78
2022-08-12T00:47:24.193Z,102171.13
2022-08-12T00:49:55.402Z,102163.28
2022-08-12T00:52:23.587Z,102169.66
2022-08-12T00:54:53.934Z,102179.34
2022-08-12T00:57:22.998Z,102176.00
2022-08-12T00:59:51.753Z,102172.66
2022-08-12T01:02:24.462Z,102175.00
2022-08-12T01:05:10.764Z,102172.50
2022-08-12T01:07:56.571Z,102182.53
2022-08-12T01:10:43.477Z,102166.16
2022-08-12T01:13:19.729Z,102171.84
2022-08-12T01:15:49.325Z,102170.00
2022-08-12T01:18:18.159Z,102171.19
2022-08-12T01:20:49.316Z,102173.53
2022-08-12T01:23:36.595Z,102177.56
2022-08-12T01:26:06.817Z,102170.22
2022-08-12T01:28:35.801Z,102168.06
2022-08-12T01:31:05.634Z,102177.41
2022-08-12T01:33:35.965Z,102172.41
2022-08-12T01:36:08.691Z,102175.56
2022-08-12T01:38:37.351Z,102168.22
2022-08-12T01:41:06.437Z,102166.56
2022-08-12T01:43:34.161Z,102166.06
2022-08-12T01:46:07.376Z,102162.38
2022-08-12T01:48:50.297Z,102159.06
2022-08-12T01:52:15.689Z,102156.22
2022-08-12T01:54:19.951Z,102157.38
2022-08-12T01:56:52.197Z,102158.06
2022-08-12T01:59:50.146Z,102150.75
2022-08-12T02:02:19.080Z,102155.06
2022-08-12T02:05:18.904Z,102141.22
2022-08-12T02:08:08.374Z,102156.09
2022-08-12T02:11:03.190Z,102151.09
2022-08-12T02:13:49.770Z,102149.41
2022-08-12T02:16:24.509Z,102142.06
2022-08-12T02:18:58.597Z,102138.72
2022-08-12T02:21:32.663Z,102141.06
2022-08-12T02:24:00.916Z,102140.56
2022-08-12T02:26:30.794Z,102142.56
2022-08-12T02:29:01.188Z,102145.78
2022-08-12T02:31:30.361Z,102138.44
2022-08-12T02:33:58.930Z,102133.94
2022-08-12T02:36:27.773Z,102128.59
2022-08-12T02:38:59.157Z,102132.94
2022-08-12T02:41:27.338Z,102124.75
2022-08-12T02:43:56.608Z,102125.09
2022-08-12T02:46:29.089Z,102127.41
2022-08-12T02:49:00.755Z,102125.75
2022-08-12T02:51:30.806Z,102128.91
2022-08-12T02:54:04.798Z,102126.41
2022-08-12T02:56:33.955Z,102133.25
2022-08-12T02:59:02.314Z,102130.75
2022-08-12T03:01:34.155Z,102125.41
2022-08-12T03:04:02.969Z,102126.63
2022-08-12T03:06:38.590Z,102116.44
2022-08-12T03:09:06.399Z,102120.41
2022-08-12T03:11:42.801Z,102122.75
2022-08-12T03:14:18.025Z,102113.75
2022-08-12T03:16:50.188Z,102103.91
2022-08-12T03:19:20.475Z,102105.56
2022-08-12T03:21:55.563Z,102101.91
2022-08-12T03:24:39.109Z,102101.72
2022-08-12T03:27:09.789Z,102096.88
2022-08-12T03:29:49.912Z,102104.06
2022-08-12T03:32:35.589Z,102100.38
2022-08-12T03:35:07.246Z,102096.72
2022-08-12T03:37:36.368Z,102099.56
2022-08-12T03:40:04.423Z,102097.88
2022-08-12T03:42:35.315Z,102096.22
2022-08-12T03:45:34.506Z,102092.56
2022-08-12T03:48:32.097Z,102093.25
2022-08-12T03:51:17.770Z,102091.56
2022-08-12T03:54:03.361Z,102092.41
2022-08-12T03:56:48.669Z,102084.25
2022-08-12T03:59:33.658Z,102087.41
2022-08-12T04:02:01.197Z,102087.75
2022-08-12T04:04:34.678Z,102089.75
2022-08-12T04:07:03.180Z,102090.91
2022-08-12T04:09:30.977Z,102095.75
2022-08-12T04:12:16.176Z,102086.91
2022-08-12T04:14:43.852Z,102089.25
2022-08-12T04:17:12.554Z,102077.06
2022-08-12T04:19:41.689Z,102081.06
2022-08-12T04:22:09.867Z,102092.41
2022-08-12T04:24:37.995Z,102079.06
2022-08-12T04:27:09.374Z,102076.56
2022-08-12T04:30:21.482Z,102083.41
2022-08-12T04:32:25.841Z,102071.22
2022-08-12T04:34:55.190Z,102078.91
2022-08-12T04:37:23.204Z,102079.72
2022-08-12T04:39:51.015Z,102078.91
2022-08-12T04:42:20.112Z,102080.22
2022-08-12T04:44:48.025Z,102079.91
2022-08-12T04:47:16.558Z,102079.91
2022-08-12T04:49:44.967Z,102082.22
2022-08-12T04:52:13.931Z,102080.91
2022-08-12T04:54:43.802Z,102081.72
2022-08-12T04:57:11.382Z,102074.91
2022-08-12T04:59:46.504Z,102082.56
2022-08-12T05:02:17.044Z,102084.72
2022-08-12T05:04:49.977Z,102084.41
2022-08-12T05:07:18.862Z,102084.91
2022-08-12T05:10:00.362Z,102084.91
2022-08-12T05:12:31.116Z,102084.56
2022-08-12T05:14:59.183Z,102079.41
2022-08-12T05:17:27.203Z,102070.22
2022-08-12T05:19:57.391Z,102068.22
2022-08-12T05:22:26.852Z,102076.88
2022-08-12T05:24:54.586Z,102065.22
2022-08-12T05:27:22.849Z,102066.88
2022-08-12T05:30:07.972Z,102073.03
2022-08-12T05:32:37.337Z,102075.22
2022-08-12T05:35:06.568Z,102071.22
2022-08-12T05:37:36.032Z,102069.72
2022-08-12T05:40:10.632Z,102078.41
2022-08-12T05:42:38.961Z,102081.38
2022-08-12T05:45:06.917Z,102078.22
2022-08-12T05:47:52.961Z,102083.72
2022-08-12T05:50:21.692Z,102081.53
2022-08-12T05:52:50.575Z,102094.72
2022-08-12T05:55:24.163Z,102097.69
2022-08-12T05:57:55.272Z,102099.84
2022-08-12T06:00:25.420Z,102096.00
2022-08-12T06:03:01.110Z,102097.84
2022-08-12T06:05:29.018Z,102103.31
2022-08-12T06:08:01.505Z,102103.47
2022-08-12T06:10:32.333Z,102099.13
2022-08-12T06:13:01.010Z,102098.44
2022-08-12T06:15:28.599Z,102099.78
2022-08-12T06:17:56.300Z,102100.78
2022-08-12T06:20:29.948Z,102102.22
2022-08-12T06:23:02.662Z,102099.72
2022-08-12T06:25:30.289Z,102105.69
2022-08-12T06:28:06.260Z,102101.66
2022-08-12T06:30:39.097Z,102093.13
2022-08-12T06:33:20.914Z,102094.03
2022-08-12T06:35:51.795Z,102087.69
2022-08-12T06:38:21.983Z,102082.94
2022-08-12T06:41:08.395Z,102089.28
2022-08-12T06:44:05.753Z,102083.88
2022-08-12T06:46:24.013Z,102090.53
2022-08-12T06:48:55.621Z,102080.09
2022-08-12T06:51:23.483Z,102080.44
2022-08-12T06:53:52.413Z,102074.94
2022-08-12T06:56:20.543Z,102081.59
2022-08-12T06:58:48.307Z,102073.28
2022-08-12T07:01:17.509Z,102074.78
2022-08-12T07:03:45.562Z,102077.34
2022-08-12T07:06:13.648Z,102085.69
2022-08-12T07:08:43.894Z,102072.09
2022-08-12T07:11:13.785Z,102077.09
2022-08-12T07:14:02.490Z,102080.84
2022-08-12T07:16:52.140Z,102077.13
2022-08-12T07:19:20.195Z,102085.13
2022-08-12T07:22:01.698Z,102080.72
2022-08-12T07:24:30.420Z,102081.06
2022-08-12T07:26:59.410Z,102078.09
2022-08-12T07:29:57.830Z,102082.13
2022-08-12T07:32:15.988Z,102084.13
2022-08-12T07:34:43.591Z,102084.94
2022-08-12T07:37:11.169Z,102076.56
2022-08-12T07:39:50.709Z,102076.13
2022-08-12T07:42:27.852Z,102080.16
2022-08-12T07:44:55.837Z,102082.34
2022-08-12T07:47:23.740Z,102079.66
2022-08-12T07:50:03.177Z,102087.72
2022-08-12T07:52:34.076Z,102079.56
2022-08-12T07:55:01.637Z,102084.66
2022-08-12T07:57:32.460Z,102092.88
2022-08-12T08:00:04.061Z,102098.53
2022-08-12T08:02:36.200Z,102099.34
2022-08-12T08:05:04.387Z,102095.91
2022-08-12T08:07:31.922Z,102093.97
2022-08-12T08:10:00.195Z,102093.69
2022-08-12T08:12:46.228Z,102091.69
2022-08-12T08:15:15.300Z,102098.94
2022-08-12T08:17:57.889Z,102096.47
2022-08-12T08:20:28.474Z,102091.69
2022-08-12T08:22:57.523Z,102091.41
2022-08-12T08:25:36.090Z,102082.78
2022-08-12T08:28:05.877Z,102084.81
2022-08-12T08:30:37.490Z,102092.72
2022-08-12T08:33:15.544Z,102096.22
2022-08-12T08:35:54.423Z,102079.84
2022-08-12T08:38:32.717Z,102088.75
2022-08-12T08:42:18.740Z,102088.50
2022-08-12T08:44:08.242Z,102082.50
2022-08-12T08:46:38.070Z,102087.06
2022-08-12T08:49:06.025Z,102088.88
2022-08-12T08:51:33.830Z,102091.63
2022-08-12T08:54:01.583Z,102085.41
2022-08-12T08:56:30.200Z,102082.50
2022-08-12T08:58:57.948Z,102083.16
2022-08-12T09:01:25.617Z,102080.91
2022-08-12T09:05:12.658Z,102081.28
2022-08-12T09:06:53.640Z,102089.81
2022-08-12T09:09:22.322Z,102085.34
2022-08-12T09:12:12.147Z,102089.34
2022-08-12T09:14:46.926Z,102078.84
2022-08-12T09:17:22.401Z,102077.78
2022-08-12T09:19:58.010Z,102077.53
2022-08-12T09:22:28.704Z,102079.91
2022-08-12T09:24:59.749Z,102086.97
2022-08-12T09:27:57.921Z,102082.19
2022-08-12T09:30:16.934Z,102083.97
2022-08-12T09:33:05.288Z,102078.81
2022-08-12T09:35:43.094Z,102087.00
2022-08-12T09:38:28.109Z,102085.22
2022-08-12T09:42:09.645Z,102078.75
2022-08-12T09:44:05.206Z,102080.56
2022-08-12T09:46:34.723Z,102076.63
2022-08-12T09:49:03.968Z,102070.13
2022-08-12T09:51:44.571Z,102060.91
2022-08-12T09:54:32.907Z,102067.19
2022-08-12T09:58:07.061Z,102049.91
2022-08-12T10:00:17.032Z,102063.88
2022-08-12T10:02:44.670Z,102050.97
2022-08-12T10:05:17.890Z,102057.81
2022-08-12T10:07:49.335Z,102056.28
2022-08-12T10:10:22.383Z,102053.47
2022-08-12T10:13:10.764Z,102046.91
2022-08-12T10:16:03.019Z,102054.00
2022-08-12T10:18:32.851Z,102047.91
2022-08-12T10:21:06.110Z,102048.88
2022-08-12T10:23:40.213Z,102038.25
2022-08-12T10:26:37.378Z,102044.19
2022-08-12T10:30:03.670Z,102041.72
2022-08-12T10:32:20.708Z,102042.78
2022-08-12T10:34:53.360Z,102036.50
2022-08-12T10:38:36.412Z,102035.78
2022-08-12T10:40:20.029Z,102029.53
2022-08-12T10:43:07.866Z,102023.94
2022-08-12T10:45:35.733Z,102032.91
2022-08-12T10:48:21.050Z,102027.19
2022-08-12T10:51:01.762Z,102025.66
2022-08-12T10:53:45.129Z,102014.91
2022-08-12T10:56:16.330Z,102008.78
2022-08-12T10:58:46.813Z,102012.97
2022-08-12T11:01:48.922Z,102012.28
2022-08-12T11:04:35.429Z,102003.41
2022-08-12T11:07:07.911Z,102015.69
2022-08-12T11:10:00.384Z,102009.88
2022-08-12T11:12:55.986Z,102005.91
2022-08-12T11:15:33.587Z,101991.59
2022-08-12T11:18:11.799Z,101999.16
2022-08-12T11:20:39.932Z,102002.53
2022-08-12T11:23:24.659Z,101984.75
2022-08-12T11:26:00.454Z,101987.78
2022-08-12T11:28:37.691Z,101987.78
2022-08-12T11:31:06.443Z,101987.56
2022-08-12T11:34:04.320Z,101994.41
2022-08-12T11:36:22.468Z,101996.34
2022-08-12T11:38:51.378Z,101993.56
2022-08-12T11:41:31.053Z,101994.63
2022-08-12T11:44:30.656Z,101995.94
2022-08-12T11:46:51.184Z,101988.69
2022-08-12T11:49:30.661Z,101985.44
2022-08-12T11:51:59.586Z,101968.25
2022-08-12T11:54:29.893Z,101976.19
2022-08-12T11:56:59.963Z,101972.19
2022-08-12T12:02:00.732Z,101971.84
2022-08-12T12:02:20.706Z,101971.03
2022-08-12T12:04:53.066Z,101971.28
2022-08-12T12:07:33.972Z,101965.88
2022-08-12T12:10:10.371Z,101964.84
2022-08-12T12:12:38.702Z,101966.97
2022-08-12T12:15:12.413Z,101963.84
2022-08-12T12:17:41.580Z,101962.09
2022-08-12T12:20:10.519Z,101957.72
2022-08-12T12:22:40.011Z,101957.50
2022-08-12T12:25:13.204Z,101951.78
2022-08-12T12:28:04.023Z,101949.38
2022-08-12T12:30:36.514Z,101951.47
2022-08-12T12:33:05.308Z,101956.13
2022-08-12T12:36:16.411Z,101951.81
2022-08-12T12:38:21.135Z,101951.56
2022-08-12T12:40:53.307Z,101957.41
2022-08-12T12:43:28.915Z,101949.41
2022-08-12T12:46:11.163Z,101937.28
2022-08-12T12:48:42.492Z,101952.31
2022-08-12T12:51:48.299Z,101947.78
2022-08-12T12:54:09.434Z,101946.50
2022-08-12T12:56:43.024Z,101942.41
2022-08-12T12:59:35.000Z,101942.13
2022-08-12T13:02:07.962Z,101939.78
2022-08-12T13:04:37.283Z,101935.59
2022-08-12T13:07:05.931Z,101933.19
2022-08-12T13:09:35.833Z,101931.94
2022-08-12T13:12:04.252Z,101927.47
2022-08-12T13:14:33.229Z,101924.91
2022-08-12T13:17:06.194Z,101920.91
2022-08-12T13:19:45.151Z,101924.84
2022-08-12T13:22:18.587Z,101914.03
2022-08-12T13:24:46.514Z,101924.84
2022-08-12T13:27:22.673Z,101923.78
2022-08-12T13:29:56.231Z,101929.84
2022-08-12T13:32:31.535Z,101915.44
2022-08-12T13:35:04.603Z,101917.16
2022-08-12T13:37:54.504Z,101909.28
2022-08-12T13:40:22.641Z,101902.09
2022-08-12T13:42:55.843Z,101904.28
2022-08-12T13:45:23.493Z,101906.91
2022-08-12T13:47:55.317Z,101902.38
2022-08-12T13:50:26.838Z,101902.81
2022-08-12T13:52:54.491Z,101906.66
2022-08-12T13:55:30.969Z,101892.47
2022-08-12T13:58:00.051Z,101893.72
2022-08-12T14:00:34.292Z,101890.75
2022-08-12T14:03:07.501Z,101884.91
2022-08-12T14:05:39.250Z,101888.63
2022-08-12T14:08:07.893Z,101878.38
2022-08-12T14:10:37.616Z,101877.72
2022-08-12T14:13:10.455Z,101878.28
2022-08-12T14:15:47.804Z,101871.44
2022-08-12T14:18:17.553Z,101873.84
2022-08-12T14:20:47.563Z,101875.78
2022-08-12T14:24:00.950Z,101875.91
2022-08-12T14:26:05.253Z,101870.16
2022-08-12T14:28:34.877Z,101867.69
2022-08-12T14:31:04.773Z,101870.31
2022-08-12T14:33:44.009Z,101876.47
2022-08-12T14:36:12.966Z,101872.38
2022-08-12T14:38:41.403Z,101868.00
2022-08-12T14:41:11.068Z,101868.09
2022-08-12T14:43:58.822Z,101866.84
2022-08-12T14:46:27.935Z,101870.66
2022-08-12T14:48:56.939Z,101863.53
2022-08-12T14:52:55.868Z,101862.03
2022-08-12T14:57:19.464Z,101854.50
2022-08-12T15:00:07.777Z,101863.34
2022-08-12T15:02:38.125Z,101852.78
2022-08-12T15:05:08.257Z,101854.50
2022-08-12T15:07:50.102Z,101856.19
2022-08-12T15:10:31.114Z,101853.84
2022-08-12T15:13:00.328Z,101855.22
2022-08-12T15:15:30.501Z,101855.03
2022-08-12T15:18:02.424Z,101851.13
2022-08-12T15:20:38.140Z,101856.19
2022-08-12T15:23:05.982Z,101852.56
2022-08-12T15:25:47.750Z,101842.38
2022-08-12T15:28:20.701Z,101842.06
2022-08-12T15:30:49.627Z,101843.97
2022-08-12T15:33:20.943Z,101841.94
2022-08-12T15:35:54.007Z,101842.81
2022-08-12T15:38:24.913Z,101838.69
2022-08-12T15:40:54.069Z,101839.63
2022-08-12T15:43:51.960Z,101836.38
2022-08-12T15:46:15.261Z,101830.25
2022-08-12T15:48:46.661Z,101830.34
2022-08-12T15:51:27.891Z,101834.09
2022-08-12T15:54:34.114Z,101830.88
2022-08-12T15:57:05.515Z,101821.41
2022-08-12T16:00:03.713Z,101830.91
2022-08-12T16:02:21.439Z,101832.22
2022-08-12T16:04:50.406Z,101827.72
2022-08-12T16:07:30.069Z,101827.34
2022-08-12T16:10:07.109Z,101827.34
2022-08-12T16:12:41.427Z,101820.72
2022-08-12T16:15:09.930Z,101823.63
2022-08-12T16:18:18.828Z,101815.84
2022-08-12T16:20:33.173Z,101803.50
2022-08-12T16:23:26.368Z,101814.25
2022-08-12T16:26:06.350Z,101812.19
2022-08-12T16:28:40.114Z,101818.38
2022-08-12T16:31:09.913Z,101811.38
2022-08-12T16:33:59.262Z,101808.91
2022-08-12T16:36:28.554Z,101803.53
2022-08-12T16:38:57.789Z,101803.59
2022-08-12T16:41:38.262Z,101796.56
2022-08-12T16:44:08.350Z,101793.66
2022-08-12T16:46:36.161Z,101794.50
2022-08-12T16:49:12.967Z,101792.47
2022-08-12T16:51:46.827Z,101792.03
2022-08-12T16:54:17.016Z,101790.00
2022-08-12T16:56:55.306Z,101786.72
2022-08-12T16:59:26.293Z,101789.97
2022-08-12T17:02:00.429Z,101787.09
2022-08-12T17:04:29.035Z,101787.47
2022-08-12T17:06:56.562Z,101782.94
2022-08-12T17:09:27.053Z,101783.38
2022-08-12T17:12:08.074Z,101788.69
2022-08-12T17:14:37.762Z,101790.31
2022-08-12T17:17:09.982Z,101787.84
2022-08-12T17:20:35.292Z,101781.66
2022-08-12T17:22:53.126Z,101786.13
2022-08-12T17:25:23.108Z,101791.00
2022-08-12T17:27:57.341Z,101787.28
2022-08-12T17:30:27.557Z,101783.16
2022-08-12T17:32:56.500Z,101782.69
2022-08-12T17:35:37.377Z,101781.00
2022-08-12T17:38:13.606Z,101784.59
2022-08-12T17:40:44.198Z,101785.34
2022-08-12T17:43:56.464Z,101780.34
2022-08-12T17:46:04.137Z,101781.06
2022-08-12T17:48:38.425Z,101779.31
2022-08-12T17:51:15.728Z,101789.06
2022-08-12T17:54:11.344Z,101785.25
2022-08-12T17:56:36.797Z,101783.91
2022-08-12T17:59:04.505Z,101778.88
2022-08-12T18:01:35.804Z,101783.34
2022-08-12T18:04:20.951Z,101789.44
2022-08-12T18:06:50.903Z,101790.56
2022-08-12T18:09:19.386Z,101789.22
2022-08-12T18:12:08.147Z,101790.75
2022-08-12T18:14:36.959Z,101787.38
2022-08-12T18:17:08.736Z,101789.72
2022-08-12T18:20:06.468Z,101794.94
2022-08-12T18:22:30.961Z,101791.09
2022-08-12T18:25:02.265Z,101797.09
2022-08-12T18:27:44.264Z,101795.72
2022-08-12T18:30:16.388Z,101795.22
2022-08-12T18:32:58.242Z,101804.44
2022-08-12T18:35:38.689Z,101791.66
2022-08-12T18:38:16.596Z,101798.84
2022-08-12T18:41:03.832Z,101797.09
2022-08-12T18:43:37.015Z,101801.03
2022-08-12T18:46:22.821Z,101806.94
2022-08-12T18:48:56.887Z,101804.28
2022-08-12T18:51:51.815Z,101809.75
2022-08-12T18:54:23.451Z,101800.59
2022-08-12T18:56:53.320Z,101808.97
2022-08-12T19:00:02.333Z,101805.88
2022-08-12T19:02:19.063Z,101810.56
2022-08-12T19:04:53.024Z,101810.34
2022-08-12T19:07:21.869Z,101807.72
2022-08-12T19:09:58.614Z,101809.59
2022-08-12T19:12:56.971Z,101807.34
2022-08-12T19:15:27.379Z,101807.56
2022-08-12T19:18:02.435Z,101818.41
2022-08-12T19:20:31.634Z,101815.72
2022-08-12T19:23:02.463Z,101803.69
2022-08-12T19:25:59.268Z,101805.94
2022-08-12T19:28:29.549Z,101801.63
2022-08-12T19:31:17.465Z,101802.66
2022-08-12T19:34:06.461Z,101806.97
2022-08-12T19:36:34.565Z,101806.84
2022-08-12T19:39:02.973Z,101822.56
2022-08-12T19:42:00.497Z,101817.50
2022-08-12T19:44:29.907Z,101821.00
2022-08-12T19:47:03.401Z,101818.88
2022-08-12T19:49:30.949Z,101817.13
2022-08-12T19:51:59.348Z,101821.06
2022-08-12T19:54:27.290Z,101825.84
2022-08-12T19:56:59.289Z,101823.28
2022-08-12T19:59:43.378Z,101821.91
2022-08-12T20:02:32.935Z,101819.31
2022-08-12T20:06:03.349Z,101819.56
2022-08-12T20:07:59.072Z,101813.34
2022-08-12T20:10:35.346Z,101821.78
2022-08-12T20:13:19.023Z,101823.69
2022-08-12T20:15:59.994Z,101823.97
2022-08-12T20:18:53.243Z,101825.91
2022-08-12T20:21:24.384Z,101824.97
2022-08-12T20:24:00.624Z,101826.84
2022-08-12T20:26:29.132Z,101821.88
2022-08-12T20:28:59.469Z,101824.25
2022-08-12T20:31:31.713Z,101824.63
2022-08-12T20:34:01.216Z,101829.03
2022-08-12T20:36:42.936Z,101822.06
2022-08-12T20:39:34.026Z,101826.47
2022-08-12T20:42:02.295Z,101818.28
2022-08-12T20:44:30.795Z,101817.81
2022-08-12T20:47:06.274Z,101814.50
2022-08-12T20:49:55.338Z,101815.69
2022-08-12T20:52:30.122Z,101823.41
2022-08-12T20:54:58.250Z,101816.41
2022-08-12T20:57:37.371Z,101814.75
2022-08-12T21:00:08.985Z,101815.47
2022-08-12T21:02:39.332Z,101815.00
2022-08-12T21:06:09.762Z,101812.88
2022-08-12T21:08:19.056Z,101820.13
2022-08-12T21:10:51.271Z,101811.13
2022-08-12T21:13:20.913Z,101830.59
2022-08-12T21:15:55.132Z,101817.06
2022-08-12T21:18:29.143Z,101810.44
2022-08-12T21:21:00.519Z,101814.38
2022-08-12T21:23:30.882Z,101812.97
2022-08-12T21:26:11.287Z,101818.53
2022-08-12T21:28:44.222Z,101817.25
2022-08-12T21:32:36.697Z,101823.66
2022-08-12T21:34:17.786Z,101827.22
2022-08-12T21:36:49.402Z,101827.94
2022-08-12T21:39:20.401Z,101820.94
2022-08-12T21:41:50.142Z,101828.16
2022-08-12T21:44:32.502Z,101822.81
2022-08-12T21:47:20.150Z,101819.03
2022-08-12T21:50:02.436Z,101822.22
2022-08-12T21:52:34.568Z,101812.41
2022-08-12T21:55:03.361Z,101815.94
2022-08-12T21:57:36.379Z,101821.19
2022-08-12T22:00:17.451Z,101815.38
2022-08-12T22:03:02.745Z,101818.13
2022-08-12T22:05:47.893Z,101815.50
2022-08-12T22:08:22.041Z,101810.53
2022-08-12T22:10:56.419Z,101820.59
2022-08-12T22:14:04.182Z,101819.66
2022-08-12T22:16:12.498Z,101820.72
2022-08-12T22:18:40.473Z,101821.44
2022-08-12T22:21:09.034Z,101816.47
2022-08-12T22:23:51.748Z,101815.50
2022-08-12T22:26:29.419Z,101816.25
2022-08-12T22:29:23.052Z,101818.13
2022-08-12T22:31:53.764Z,101816.00
2022-08-12T22:34:21.461Z,101815.88
2022-08-12T22:36:57.227Z,101815.75
2022-08-12T22:39:26.586Z,101816.44
2022-08-12T22:42:11.733Z,101808.63
2022-08-12T22:44:56.677Z,101817.50
2022-08-12T22:47:54.691Z,101815.34
2022-08-12T22:50:27.778Z,101806.69
2022-08-12T22:53:14.243Z,101810.25
2022-08-12T22:55:59.619Z,101809.28
2022-08-12T22:58:33.390Z,101807.13
2022-08-12T23:01:02.259Z,101810.72
2022-08-12T23:03:49.261Z,101807.75
2022-08-12T23:06:18.403Z,101807.13
2022-08-12T23:08:47.045Z,101793.13
2022-08-12T23:11:17.944Z,101810.88
2022-08-12T23:13:55.359Z,101802.59
2022-08-12T23:16:29.244Z,101797.63
2022-08-12T23:19:01.413Z,101808.84
2022-08-12T23:22:04.486Z,101803.38
2022-08-12T23:24:26.304Z,101800.78
2022-08-12T23:27:13.009Z,101811.19
2022-08-12T23:29:43.349Z,101804.03
2022-08-12T23:32:36.605Z,101798.22
2022-08-12T23:35:03.782Z,101806.56
2022-08-12T23:37:47.207Z,101807.31
2022-08-12T23:40:22.174Z,101801.00
2022-08-12T23:42:54.852Z,101797.53
2022-08-12T23:45:31.072Z,101798.56
2022-08-12T23:48:00.217Z,101798.81
2022-08-12T23:50:34.303Z,101792.16
2022-08-12T23:53:05.325Z,101780.66
2022-08-12T23:55:34.032Z,101791.88
2022-08-12T23:58:22.993Z,101787.22
